createdAt,value
2023-04-07T00:01:17.890Z,100502.00
2023-04-07T00:03:44.590Z,100505.69
2023-04-07T00:06:11.245Z,100510.38
2023-04-07T00:08:37.941Z,100508.31
2023-04-07T00:11:04.605Z,100513.00
2023-04-07T00:13:31.259Z,100513.25
2023-04-07T00:15:57.857Z,100507.84
2023-04-07T00:18:24.419Z,100475.38
2023-04-07T00:20:51.006Z,100505.72
2023-04-07T00:23:17.665Z,100492.50
2023-04-07T00:25:44.240Z,100486.38
2023-04-07T00:28:10.857Z,100492.84
2023-04-07T00:30:40.437Z,100478.50
2023-04-07T00:33:09.678Z,100476.56
2023-04-07T00:35:36.612Z,100470.34
2023-04-07T00:38:03.490Z,100418.72
2023-04-07T00:40:30.454Z,100464.75
2023-04-07T00:42:57.200Z,100459.09
2023-04-07T00:45:23.784Z,100447.06
2023-04-07T00:47:50.852Z,100451.75
2023-04-07T00:50:18.029Z,100451.94
2023-04-07T00:52:44.888Z,100452.41
2023-04-07T00:55:11.897Z,100454.91
2023-04-07T00:57:38.501Z,100449.25
2023-04-07T01:00:06.779Z,100445.78
2023-04-07T01:02:43.037Z,100444.00
2023-04-07T01:05:44.138Z,100399.69
2023-04-07T01:08:58.936Z,100444.38
2023-04-07T01:11:28.487Z,100425.00
2023-04-07T01:13:56.435Z,100422.78
2023-04-07T01:16:53.051Z,100430.75
2023-04-07T01:19:40.823Z,100435.66
2023-04-07T01:22:14.501Z,100422.97
2023-04-07T01:25:06.508Z,100425.31
2023-04-07T01:28:00.993Z,100426.06
2023-04-07T01:30:28.904Z,100424.25
2023-04-07T01:32:56.792Z,100423.75
2023-04-07T01:35:23.446Z,100413.25
2023-04-07T01:37:50.567Z,100406.47
2023-04-07T01:40:17.147Z,100416.41
2023-04-07T01:42:43.782Z,100406.47
2023-04-07T01:45:10.440Z,100410.38
2023-04-07T01:47:39.811Z,100401.94
2023-04-07T01:50:09.292Z,100399.00
2023-04-07T01:52:39.592Z,100401.59
2023-04-07T01:55:06.693Z,100385.38
2023-04-07T01:57:37.563Z,100380.53
2023-04-07T02:00:14.195Z,100398.38
2023-04-07T02:02:44.912Z,100393.50
2023-04-07T02:05:13.596Z,100388.66
2023-04-07T02:07:51.011Z,100398.06
2023-04-07T02:10:18.118Z,100398.03
2023-04-07T02:12:44.781Z,100399.66
2023-04-07T02:15:15.599Z,100395.91
2023-04-07T02:17:44.758Z,100388.28
2023-04-07T02:20:11.861Z,100382.25
2023-04-07T02:22:39.011Z,100389.91
2023-04-07T02:25:24.445Z,100378.28
2023-04-07T02:27:53.206Z,100389.28
2023-04-07T02:30:19.905Z,100387.16
2023-04-07T02:32:49.321Z,100380.53
2023-04-07T02:35:16.661Z,100379.09
2023-04-07T02:37:43.899Z,100358.97
2023-04-07T02:40:10.594Z,100319.53
2023-04-07T02:42:37.435Z,100356.47
2023-04-07T02:45:07.847Z,100374.84
2023-04-07T02:47:34.655Z,100362.38
2023-04-07T02:50:01.326Z,100369.84
2023-04-07T02:52:27.995Z,100368.53
2023-04-07T02:54:54.737Z,100367.56
2023-04-07T02:57:25.056Z,100348.09
2023-04-07T02:59:56.866Z,100340.97
2023-04-07T03:02:25.736Z,100328.66
2023-04-07T03:04:53.205Z,100376.94
2023-04-07T03:07:24.027Z,100371.44
2023-04-07T03:09:53.824Z,100364.31
2023-04-07T03:12:20.711Z,100357.69
2023-04-07T03:14:47.867Z,100340.97
2023-04-07T03:17:14.810Z,100359.00
2023-04-07T03:19:42.608Z,100350.72
2023-04-07T03:22:09.246Z,100343.59
2023-04-07T03:24:41.272Z,100349.91
2023-04-07T03:27:08.091Z,100344.41
2023-04-07T03:29:43.564Z,100351.22
2023-04-07T03:32:13.080Z,100338.22
2023-04-07T03:34:42.651Z,100331.41
2023-04-07T03:37:09.384Z,100350.09
2023-04-07T03:39:37.560Z,100346.81
2023-04-07T03:42:12.959Z,100339.38
2023-04-07T03:44:39.674Z,100340.84
2023-04-07T03:47:06.368Z,100337.94
2023-04-07T03:49:34.523Z,100340.34
2023-04-07T03:52:02.906Z,100345.22
2023-04-07T03:54:29.717Z,100345.06
2023-04-07T03:56:57.303Z,100322.41
2023-04-07T03:59:23.998Z,100336.19
2023-04-07T04:01:56.845Z,100334.56
2023-04-07T04:04:24.525Z,100337.38
2023-04-07T04:06:51.668Z,100293.84
2023-04-07T04:09:28.619Z,100304.50
2023-04-07T04:11:56.288Z,100343.22
2023-04-07T04:14:24.113Z,100335.94
2023-04-07T04:16:55.988Z,100340.13
2023-04-07T04:19:36.463Z,100345.97
2023-04-07T04:22:11.307Z,100331.59
2023-04-07T04:24:47.340Z,100325.94
2023-04-07T04:27:13.903Z,100333.75
2023-04-07T04:29:41.313Z,100337.00
2023-04-07T04:32:11.358Z,100348.16
2023-04-07T04:34:39.087Z,100350.13
2023-04-07T04:37:06.035Z,100355.75
2023-04-07T04:39:32.943Z,100348.13
2023-04-07T04:41:59.738Z,100347.66
2023-04-07T04:44:32.438Z,100350.50
2023-04-07T04:47:01.415Z,100352.91
2023-04-07T04:49:28.743Z,100346.44
2023-04-07T04:51:59.413Z,100345.78
2023-04-07T04:54:26.693Z,100361.78
2023-04-07T04:56:53.878Z,100364.72
2023-04-07T04:59:20.910Z,100343.50
2023-04-07T05:02:01.033Z,100356.91
2023-04-07T05:04:28.378Z,100353.19
2023-04-07T05:07:02.143Z,100362.91
2023-04-07T05:09:31.252Z,100359.19
2023-04-07T05:11:58.070Z,100359.53
2023-04-07T05:14:25.744Z,100363.91
2023-04-07T05:16:57.939Z,100355.97
2023-04-07T05:19:29.648Z,100359.72
2023-04-07T05:22:01.585Z,100363.13
2023-04-07T05:24:29.191Z,100364.59
2023-04-07T05:26:59.437Z,100337.22
2023-04-07T05:29:26.423Z,100352.53
2023-04-07T05:31:54.365Z,100355.75
2023-04-07T05:34:22.795Z,100354.59
2023-04-07T05:36:53.447Z,100347.28
2023-04-07T05:39:21.255Z,100364.63
2023-04-07T05:41:51.982Z,100367.97
2023-04-07T05:44:22.968Z,100372.50
2023-04-07T05:46:49.646Z,100370.25
2023-04-07T05:49:20.639Z,100364.25
2023-04-07T05:51:53.582Z,100369.91
2023-04-07T05:54:20.234Z,100377.53
2023-04-07T05:56:48.086Z,100368.25
2023-04-07T05:59:14.979Z,100346.78
2023-04-07T06:01:42.501Z,100351.63
2023-04-07T06:04:10.404Z,100365.59
2023-04-07T06:06:38.118Z,100367.50
2023-04-07T06:09:06.313Z,100377.19
2023-04-07T06:11:33.704Z,100372.31
2023-04-07T06:14:00.386Z,100366.91
2023-04-07T06:16:27.070Z,100367.38
2023-04-07T06:18:53.727Z,100377.91
2023-04-07T06:21:20.317Z,100369.13
2023-04-07T06:23:47.290Z,100367.00
2023-04-07T06:26:14.102Z,100357.09
2023-04-07T06:28:40.793Z,100363.78
2023-04-07T06:31:08.610Z,100351.75
2023-04-07T06:33:36.598Z,100366.03
2023-04-07T06:36:03.242Z,100355.66
2023-04-07T06:38:29.854Z,100341.56
2023-04-07T06:40:56.460Z,100333.94
2023-04-07T06:43:23.028Z,100348.31
2023-04-07T06:46:01.145Z,100350.25
2023-04-07T06:48:27.855Z,100355.59
2023-04-07T06:50:54.419Z,100355.41
2023-04-07T06:53:21.276Z,100355.22
2023-04-07T06:55:47.884Z,100355.59
2023-04-07T06:58:14.508Z,100335.13
2023-04-07T07:00:41.049Z,100357.69
2023-04-07T07:03:07.850Z,100353.69
2023-04-07T07:05:34.682Z,100353.88
2023-04-07T07:08:01.299Z,100335.22
2023-04-07T07:10:28.023Z,100358.53
2023-04-07T07:12:54.684Z,100356.47
2023-04-07T07:15:21.249Z,100353.16
2023-04-07T07:17:47.813Z,100360.78
2023-04-07T07:20:14.444Z,100337.72
2023-04-07T07:22:41.522Z,100353.50
2023-04-07T07:25:08.245Z,100354.47
2023-04-07T07:27:34.968Z,100353.34
2023-04-07T07:30:01.617Z,100359.00
2023-04-07T07:32:28.396Z,100360.31
2023-04-07T07:34:55.040Z,100345.09
2023-04-07T07:37:21.579Z,100355.31
2023-04-07T07:39:48.204Z,100337.88
2023-04-07T07:42:14.795Z,100354.47
2023-04-07T07:44:42.479Z,100351.22
2023-04-07T07:47:09.181Z,100356.25
2023-04-07T07:49:35.856Z,100313.91
2023-04-07T07:52:02.547Z,100356.25
2023-04-07T07:54:29.222Z,100358.38
2023-04-07T07:56:55.811Z,100356.72
2023-04-07T07:59:22.333Z,100360.94
2023-04-07T08:01:48.944Z,100350.75
2023-04-07T08:04:15.808Z,100360.09
2023-04-07T08:06:42.824Z,100364.78
2023-04-07T08:09:09.462Z,100361.75
2023-04-07T08:11:36.027Z,100366.91
2023-04-07T08:14:02.606Z,100374.22
2023-04-07T08:16:29.194Z,100367.72
2023-04-07T08:18:55.785Z,100376.94
2023-04-07T08:21:22.376Z,100367.88
2023-04-07T08:23:49.135Z,100369.03
2023-04-07T08:26:16.023Z,100367.88
2023-04-07T08:28:42.671Z,100371.25
2023-04-07T08:31:09.348Z,100374.53
2023-04-07T08:33:36.047Z,100340.41
2023-04-07T08:36:02.676Z,100375.50
2023-04-07T08:38:29.360Z,100381.47
2023-04-07T08:41:01.371Z,100370.47
2023-04-07T08:43:28.382Z,100377.91
2023-04-07T08:45:56.638Z,100382.88
2023-04-07T08:48:23.919Z,100380.66
2023-04-07T08:50:52.653Z,100380.66
2023-04-07T08:53:23.786Z,100383.25
2023-04-07T08:55:50.385Z,100380.50
2023-04-07T08:58:17.177Z,100387.47
2023-04-07T09:00:45.827Z,100375.41
2023-04-07T09:03:12.567Z,100373.94
2023-04-07T09:05:39.182Z,100397.50
2023-04-07T09:08:06.756Z,100392.63
2023-04-07T09:10:33.357Z,100396.72
2023-04-07T09:12:59.972Z,100399.47
2023-04-07T09:15:30.924Z,100362.75
2023-04-07T09:17:58.148Z,100392.81
2023-04-07T09:20:25.392Z,100385.09
2023-04-07T09:22:52.014Z,100359.19
2023-04-07T09:25:23.778Z,100381.88
2023-04-07T09:28:03.556Z,100388.19
2023-04-07T09:30:31.251Z,100386.75
2023-04-07T09:32:58.292Z,100391.75
2023-04-07T09:35:25.037Z,100388.66
2023-04-07T09:38:11.893Z,100383.94
2023-04-07T09:40:38.641Z,100360.81
2023-04-07T09:43:08.059Z,100396.28
2023-04-07T09:45:39.283Z,100363.41
2023-04-07T09:48:23.875Z,100371.88
2023-04-07T09:50:51.811Z,100382.44
2023-04-07T09:53:23.082Z,100389.59
2023-04-07T09:55:49.817Z,100388.13
2023-04-07T09:58:16.981Z,100390.22
2023-04-07T10:00:43.789Z,100388.47
2023-04-07T10:03:10.640Z,100380.03
2023-04-07T10:05:37.309Z,100392.00
2023-04-07T10:08:05.994Z,100393.63
2023-04-07T10:10:32.657Z,100388.91
2023-04-07T10:12:59.422Z,100390.53
2023-04-07T10:15:26.633Z,100385.69
2023-04-07T10:17:53.322Z,100378.38
2023-04-07T10:20:22.736Z,100383.25
2023-04-07T10:22:51.314Z,100384.56
2023-04-07T10:25:19.441Z,100385.56
2023-04-07T10:27:51.604Z,100370.69
2023-04-07T10:30:23.851Z,100347.03
2023-04-07T10:32:51.735Z,100383.50
2023-04-07T10:35:18.475Z,100368.44
2023-04-07T10:38:08.217Z,100385.75
2023-04-07T10:40:35.610Z,100378.31
2023-04-07T10:43:02.795Z,100393.66
2023-04-07T10:45:59.313Z,100393.19
2023-04-07T10:48:28.408Z,100400.44
2023-04-07T10:51:12.512Z,100414.06
2023-04-07T10:53:39.084Z,100405.28
2023-04-07T10:56:05.910Z,100424.53
2023-04-07T10:58:33.241Z,100398.13
2023-04-07T11:01:12.576Z,100410.47
2023-04-07T11:03:52.293Z,100405.59
2023-04-07T11:06:19.115Z,100409.78
2023-04-07T11:08:48.944Z,100383.06
2023-04-07T11:11:36.448Z,100390.22
2023-04-07T11:14:03.193Z,100404.66
2023-04-07T11:16:37.452Z,100395.28
2023-04-07T11:19:04.046Z,100398.88
2023-04-07T11:21:30.590Z,100397.25
2023-04-07T11:23:57.181Z,100389.97
2023-04-07T11:26:23.795Z,100406.47
2023-04-07T11:28:52.778Z,100420.53
2023-04-07T11:31:26.398Z,100413.38
2023-04-07T11:33:59.098Z,100422.78
2023-04-07T11:36:37.754Z,100430.78
2023-04-07T11:39:04.607Z,100433.31
2023-04-07T11:41:32.782Z,100438.38
2023-04-07T11:44:06.124Z,100440.59
2023-04-07T11:46:32.759Z,100432.75
2023-04-07T11:49:13.023Z,100440.88
2023-04-07T11:51:39.882Z,100420.69
2023-04-07T11:54:06.472Z,100453.59
2023-04-07T11:56:44.990Z,100462.59
2023-04-07T11:59:24.885Z,100466.28
2023-04-07T12:01:53.512Z,100468.84
2023-04-07T12:04:22.214Z,100468.72
2023-04-07T12:06:49.007Z,100474.88
2023-04-07T12:09:29.321Z,100484.44
2023-04-07T12:11:57.219Z,100474.22
2023-04-07T12:14:24.962Z,100464.50
2023-04-07T12:16:53.049Z,100484.28
2023-04-07T12:19:19.895Z,100463.41
2023-04-07T12:21:46.557Z,100469.94
2023-04-07T12:24:13.173Z,100472.19
2023-04-07T12:26:39.842Z,100468.63
2023-04-07T12:29:07.089Z,100466.81
2023-04-07T12:31:34.418Z,100454.69
2023-04-07T12:34:00.988Z,100463.13
2023-04-07T12:36:27.657Z,100456.00
2023-04-07T12:38:54.671Z,100462.66
2023-04-07T12:41:24.893Z,100453.91
2023-04-07T12:43:52.048Z,100453.78
2023-04-07T12:46:19.475Z,100456.69
2023-04-07T12:48:47.717Z,100452.31
2023-04-07T12:51:14.431Z,100452.00
2023-04-07T12:53:41.288Z,100457.09
2023-04-07T12:56:08.121Z,100449.56
2023-04-07T12:58:34.768Z,100456.28
2023-04-07T13:01:01.431Z,100456.53
2023-04-07T13:03:28.306Z,100449.19
2023-04-07T13:05:55.435Z,100449.47
2023-04-07T13:08:22.128Z,100444.53
2023-04-07T13:10:48.741Z,100450.91
2023-04-07T13:13:15.560Z,100457.28
2023-04-07T13:15:42.177Z,100429.06
2023-04-07T13:18:09.182Z,100462.38
2023-04-07T13:20:35.832Z,100461.00
2023-04-07T13:23:08.153Z,100463.41
2023-04-07T13:25:37.414Z,100457.25
2023-04-07T13:28:04.142Z,100433.03
2023-04-07T13:30:31.070Z,100460.00
2023-04-07T13:32:57.722Z,100450.13
2023-04-07T13:35:24.446Z,100463.75
2023-04-07T13:37:51.080Z,100460.00
2023-04-07T13:40:17.727Z,100453.44
2023-04-07T13:42:44.416Z,100408.66
2023-04-07T13:45:11.368Z,100459.84
2023-04-07T13:47:38.645Z,100470.06
2023-04-07T13:50:05.784Z,100415.09
2023-04-07T13:52:35.456Z,100447.94
2023-04-07T13:55:04.149Z,100460.38
2023-04-07T13:57:30.944Z,100464.78
2023-04-07T13:59:57.952Z,100461.22
2023-04-07T14:02:26.086Z,100457.84
2023-04-07T14:04:52.844Z,100459.97
2023-04-07T14:07:19.510Z,100466.44
2023-04-07T14:09:48.152Z,100448.44
2023-04-07T14:12:14.882Z,100461.91
2023-04-07T14:14:41.669Z,100453.31
2023-04-07T14:17:08.277Z,100453.78
2023-04-07T14:19:34.992Z,100444.78
2023-04-07T14:22:01.617Z,100461.69
2023-04-07T14:24:28.265Z,100460.47
2023-04-07T14:26:54.898Z,100453.44
2023-04-07T14:29:22.230Z,100421.53
2023-04-07T14:31:48.815Z,100459.69
2023-04-07T14:34:15.629Z,100457.19
2023-04-07T14:36:43.934Z,100440.53
2023-04-07T14:39:12.473Z,100466.22
2023-04-07T14:41:39.128Z,100435.72
2023-04-07T14:44:06.234Z,100463.66
2023-04-07T14:46:32.932Z,100460.38
2023-04-07T14:49:00.268Z,100463.00
2023-04-07T14:51:27.420Z,100461.38
2023-04-07T14:53:56.145Z,100470.25
2023-04-07T14:56:23.154Z,100466.88
2023-04-07T14:58:49.830Z,100454.56
2023-04-07T15:01:17.440Z,100465.13
2023-04-07T15:03:44.640Z,100464.81
2023-04-07T15:06:11.882Z,100469.50
2023-04-07T15:08:38.573Z,100473.69
2023-04-07T15:11:08.171Z,100470.94
2023-04-07T15:13:34.955Z,100472.56
2023-04-07T15:16:11.817Z,100480.38
2023-04-07T15:18:40.046Z,100483.91
2023-04-07T15:21:07.801Z,100481.50
2023-04-07T15:23:34.486Z,100483.28
2023-04-07T15:26:01.124Z,100475.75
2023-04-07T15:28:27.712Z,100485.19
2023-04-07T15:30:54.331Z,100475.50
2023-04-07T15:33:20.984Z,100485.75
2023-04-07T15:35:47.684Z,100476.81
2023-04-07T15:38:14.332Z,100485.72
2023-04-07T15:40:41.143Z,100494.13
2023-04-07T15:43:10.455Z,100487.81
2023-04-07T15:45:45.921Z,100491.38
2023-04-07T15:48:12.781Z,100492.00
2023-04-07T15:50:39.394Z,100490.50
2023-04-07T15:53:06.150Z,100495.53
2023-04-07T15:55:33.556Z,100495.69
2023-04-07T15:58:00.749Z,100494.22
2023-04-07T16:00:28.030Z,100476.28
2023-04-07T16:02:55.527Z,100481.94
2023-04-07T16:05:22.291Z,100499.47
2023-04-07T16:07:48.994Z,100494.13
2023-04-07T16:10:19.599Z,100497.72
2023-04-07T16:12:46.948Z,100501.09
2023-04-07T16:15:14.659Z,100501.09
2023-04-07T16:17:45.598Z,100504.97
2023-04-07T16:20:14.955Z,100494.59
2023-04-07T16:22:48.091Z,100507.59
2023-04-07T16:25:15.831Z,100511.47
2023-04-07T16:27:43.891Z,100508.84
2023-04-07T16:30:12.375Z,100497.50
2023-04-07T16:32:39.156Z,100504.66
2023-04-07T16:35:06.278Z,100519.03
2023-04-07T16:37:32.909Z,100504.25
2023-04-07T16:39:59.615Z,100488.13
2023-04-07T16:42:28.568Z,100520.44
2023-04-07T16:44:57.637Z,100515.25
2023-04-07T16:47:25.800Z,100534.06
2023-04-07T16:49:52.713Z,100436.09
2023-04-07T16:52:20.523Z,100534.38
2023-04-07T16:54:47.388Z,100548.13
2023-04-07T16:57:14.013Z,100548.13
2023-04-07T16:59:40.809Z,100532.50
2023-04-07T17:02:11.587Z,100546.00
2023-04-07T17:04:38.964Z,100551.88
2023-04-07T17:07:06.108Z,100556.38
2023-04-07T17:09:33.118Z,100558.50
2023-04-07T17:11:59.974Z,100544.19
2023-04-07T17:14:26.665Z,100563.63
2023-04-07T17:16:53.284Z,100551.41
2023-04-07T17:19:19.918Z,100567.66
2023-04-07T17:21:46.697Z,100577.50
2023-04-07T17:24:15.383Z,100571.59
2023-04-07T17:26:42.889Z,100580.13
2023-04-07T17:29:09.789Z,100585.69
2023-04-07T17:31:36.572Z,100579.00
2023-04-07T17:34:03.352Z,100589.25
2023-04-07T17:36:32.469Z,100568.66
2023-04-07T17:38:59.894Z,100570.81
2023-04-07T17:41:28.213Z,100595.69
2023-04-07T17:43:54.961Z,100593.25
2023-04-07T17:46:22.611Z,100603.97
2023-04-07T17:48:50.728Z,100600.66
2023-04-07T17:51:17.698Z,100610.50
2023-04-07T17:53:44.374Z,100589.59
2023-04-07T17:56:11.037Z,100599.78
2023-04-07T17:58:37.620Z,100622.97
2023-04-07T18:01:04.268Z,100627.13
2023-04-07T18:03:31.215Z,100630.22
2023-04-07T18:05:57.928Z,100630.22
2023-04-07T18:08:24.978Z,100618.22
2023-04-07T18:10:52.244Z,100641.97
2023-04-07T18:13:18.953Z,100643.88
2023-04-07T18:15:45.682Z,100639.00
2023-04-07T18:18:12.442Z,100639.09
2023-04-07T18:20:39.127Z,100653.31
2023-04-07T18:23:05.868Z,100609.47
2023-04-07T18:25:32.615Z,100634.22
2023-04-07T18:27:59.267Z,100650.81
2023-04-07T18:30:25.890Z,100653.28
2023-04-07T18:32:52.498Z,100653.00
2023-04-07T18:35:19.347Z,100658.69
2023-04-07T18:37:45.969Z,100672.44
2023-04-07T18:40:12.918Z,100664.81
2023-04-07T18:42:39.551Z,100676.44
2023-04-07T18:45:06.848Z,100672.44
2023-04-07T18:47:33.548Z,100680.28
2023-04-07T18:50:00.200Z,100677.34
2023-04-07T18:52:26.960Z,100660.34
2023-04-07T18:54:53.583Z,100680.94
2023-04-07T18:57:20.215Z,100688.44
2023-04-07T18:59:46.944Z,100647.78
2023-04-07T19:02:13.670Z,100699.22
2023-04-07T19:04:40.717Z,100701.06
2023-04-07T19:07:07.356Z,100696.81
2023-04-07T19:09:34.022Z,100701.69
2023-04-07T19:12:00.719Z,100696.91
2023-04-07T19:14:27.490Z,100712.16
2023-04-07T19:16:54.278Z,100683.91
2023-04-07T19:19:21.088Z,100714.59
2023-04-07T19:21:47.719Z,100716.34
2023-04-07T19:24:14.399Z,100714.59
2023-04-07T19:26:41.115Z,100716.63
2023-04-07T19:29:07.745Z,100687.66
2023-04-07T19:31:34.368Z,100729.97
2023-04-07T19:34:01.077Z,100706.47
2023-04-07T19:36:28.249Z,100726.03
2023-04-07T19:38:55.087Z,100732.03
2023-04-07T19:41:21.932Z,100722.78
2023-04-07T19:43:49.086Z,100740.19
2023-04-07T19:46:16.449Z,100740.97
2023-04-07T19:48:43.341Z,100740.97
2023-04-07T19:51:10.096Z,100751.28
2023-04-07T19:53:37.996Z,100752.91
2023-04-07T19:56:05.154Z,100758.41
2023-04-07T19:58:32.305Z,100759.22
2023-04-07T20:00:58.985Z,100756.78
2023-04-07T20:03:25.758Z,100758.69
2023-04-07T20:05:52.976Z,100757.41
2023-04-07T20:08:19.623Z,100746.47
2023-04-07T20:10:46.308Z,100743.84
2023-04-07T20:13:13.001Z,100754.84
2023-04-07T20:15:40.192Z,100752.97
2023-04-07T20:18:06.960Z,100743.22
2023-04-07T20:20:33.694Z,100760.72
2023-04-07T20:23:00.453Z,100774.38
2023-04-07T20:25:27.195Z,100769.88
2023-04-07T20:27:53.912Z,100761.81
2023-04-07T20:30:20.588Z,100740.56
2023-04-07T20:32:47.269Z,100766.47
2023-04-07T20:35:13.999Z,100768.88
2023-04-07T20:37:40.903Z,100761.16
2023-04-07T20:40:08.267Z,100763.56
2023-04-07T20:42:34.925Z,100773.91
2023-04-07T20:45:04.090Z,100767.84
2023-04-07T20:47:31.365Z,100766.13
2023-04-07T20:49:58.758Z,100746.28
2023-04-07T20:52:27.152Z,100770.72
2023-04-07T20:54:53.781Z,100745.69
2023-04-07T20:57:20.340Z,100774.19
2023-04-07T20:59:46.894Z,100776.00
2023-04-07T21:02:13.703Z,100772.16
2023-04-07T21:04:40.626Z,100766.88
2023-04-07T21:07:07.235Z,100765.63
2023-04-07T21:09:33.817Z,100782.03
2023-04-07T21:12:03.446Z,100774.91
2023-04-07T21:14:31.771Z,100782.13
2023-04-07T21:16:58.729Z,100787.13
2023-04-07T21:19:25.369Z,100782.44
2023-04-07T21:21:52.089Z,100783.16
2023-04-07T21:24:18.728Z,100785.09
2023-04-07T21:26:45.457Z,100782.75
2023-04-07T21:29:12.066Z,100781.81
2023-04-07T21:31:39.031Z,100782.13
2023-04-07T21:34:05.912Z,100782.75
2023-04-07T21:36:32.821Z,100772.38
2023-04-07T21:38:59.407Z,100769.22
2023-04-07T21:41:26.425Z,100753.44
2023-04-07T21:43:53.096Z,100783.84
2023-04-07T21:46:19.702Z,100739.81
2023-04-07T21:48:46.613Z,100770.72
2023-04-07T21:51:13.392Z,100749.16
2023-04-07T21:53:40.576Z,100786.59
2023-04-07T21:56:10.791Z,100779.47
2023-04-07T21:58:37.403Z,100746.50
2023-04-07T22:01:04.038Z,100781.03
2023-04-07T22:03:30.813Z,100790.56
2023-04-07T22:06:01.165Z,100771.97
2023-04-07T22:08:27.838Z,100785.78
2023-04-07T22:10:54.654Z,100773.47
2023-04-07T22:13:21.220Z,100774.19
2023-04-07T22:15:47.863Z,100795.56
2023-04-07T22:18:14.634Z,100797.41
2023-04-07T22:20:41.479Z,100802.09
2023-04-07T22:23:08.149Z,100767.47
2023-04-07T22:25:34.752Z,100801.66
2023-04-07T22:28:01.384Z,100797.78
2023-04-07T22:30:28.013Z,100801.16
2023-04-07T22:32:54.704Z,100809.41
2023-04-07T22:35:21.474Z,100820.41
2023-04-07T22:37:48.102Z,100813.88
2023-04-07T22:40:14.776Z,100825.41
2023-04-07T22:42:41.401Z,100822.03
2023-04-07T22:45:08.663Z,100813.88
2023-04-07T22:47:35.641Z,100813.06
2023-04-07T22:50:02.252Z,100828.16
2023-04-07T22:52:28.845Z,100826.53
2023-04-07T22:54:56.373Z,100824.88
2023-04-07T22:57:23.058Z,100835.88
2023-04-07T22:59:49.616Z,100811.66
2023-04-07T23:02:16.356Z,100831.72
2023-04-07T23:04:43.058Z,100822.25
2023-04-07T23:07:09.635Z,100823.59
2023-04-07T23:09:36.254Z,100816.22
2023-04-07T23:12:02.856Z,100831.00
2023-04-07T23:14:29.452Z,100827.53
2023-04-07T23:16:56.361Z,100810.13
2023-04-07T23:19:23.211Z,100834.88
2023-04-07T23:21:49.837Z,100800.06
2023-04-07T23:24:16.455Z,100839.97
2023-04-07T23:26:43.028Z,100841.09
2023-04-07T23:29:09.731Z,100843.44
2023-04-07T23:31:36.469Z,100835.88
2023-04-07T23:34:03.935Z,100832.00
2023-04-07T23:36:31.564Z,100833.72
2023-04-07T23:38:58.174Z,100840.56
2023-04-07T23:41:24.913Z,100844.44
2023-04-07T23:43:51.594Z,100843.44
2023-04-07T23:46:18.250Z,100834.44
2023-04-07T23:48:44.866Z,100846.66
2023-04-07T23:51:12.747Z,100843.19
2023-04-07T23:53:39.429Z,100816.81
2023-04-07T23:56:06.281Z,100838.00
2023-04-07T23:58:32.868Z,100855.44
